METAR Data

Data at: 1740 UTC 21 Nov 2018

METAR for:KSFZ (Pawtucket/NC State A, RI, US)
Text:KSFZ 211656Z AUTO 24011G21KT 190V270 10SM FEW090 03/M04 A2991 RMK AO2 SLP078 T00281044
Temperature: 2.8°C ( 37°F)
Dewpoint: -4.4°C ( 24°F) [RH = 59%]
Pressure (altimeter):29.91 inches Hg (1013.0 mb) [Sea level pressure: 1007.8 mb]
Winds:from the WSW (240 degrees) at 13 MPH (11 knots; 5.7 m/s) gusting to 24 MPH (21 knots; 10.8 m/s)
Visibility:10 or more sm (16+ km)
Ceiling:at least 12,000 feet AGL
Clouds: few clouds at 9000 feet AGL
QC Flag:automated observation with no human augmentation